Time;durP1;ratioP1;P1;durP2;ratioP2;P2;SDS_P1;SDS_P2;PMS_P1;PMS_P2;Temp;Humidity;BMP_temperature;BMP_pressure;BME280_temperature;BME280_humidity;BME280_pressure;Samples;Min_cycle;Max_cycle;Signal;HPM_P1;HPM_P2
2023/07/24 00:01:50;;;;;;;;;;;23.80;41.40;;;23.18;41.53;100260.75;12254126;19;19999;-89
2023/07/24 00:05:51;;;;;;;;;;;23.80;41.40;;;23.21;41.29;100255.06;12255456;19;19955;-89
2023/07/24 00:09:52;;;;;;;;;;;23.80;41.40;;;23.22;41.57;100251.38;12254548;19;19914;-89
2023/07/24 00:13:54;;;;;;;;;;;23.90;41.40;;;23.23;41.88;100250.38;12254820;19;19919;-88
2023/07/24 00:17:55;;;;;;;;;;;23.90;41.40;;;23.14;41.56;100230.13;12249484;19;19928;-89
2023/07/24 00:21:57;;;;;;;;;;;23.90;41.50;;;23.18;41.84;100245.59;12252963;19;19910;-89
2023/07/24 00:25:58;;;;;;;;;;;23.90;41.50;;;23.08;41.84;100223.69;12248112;19;20240;-89
2023/07/24 00:30:00;;;;;;;;;;;23.90;41.50;;;23.15;41.44;100224.63;12252243;19;19914;-89
2023/07/24 00:34:02;;;;;;;;;;;23.90;41.50;;;23.07;41.86;100206.06;12252482;19;19911;-89
2023/07/24 00:38:04;;;;;;;;;;;23.90;41.50;;;23.12;41.80;100214.34;12250301;19;19935;-89
2023/07/24 00:42:05;;;;;;;;;;;23.90;41.40;;;23.15;41.55;100218.47;12253249;19;20274;-89
2023/07/24 00:46:10;;;;;;;;;;;23.90;41.50;;;23.17;41.62;100221.81;12251405;19;19998;-88
2023/07/24 00:50:12;;;;;;;;;;;23.90;41.50;;;23.18;41.92;100212.78;12253561;19;19910;-89
2023/07/24 00:54:16;;;;;;;;;;;23.90;41.50;;;23.07;42.11;100190.06;12254796;19;19927;-89
2023/07/24 00:58:19;;;;;;;;;;;23.90;41.50;;;23.14;41.58;100201.69;12249519;19;19915;-88
2023/07/24 01:02:20;;;;;;;;;;;23.90;41.60;;;23.00;41.97;100175.81;12254417;19;19942;-89
2023/07/24 01:06:22;;;;;;;;;;;23.90;41.50;;;23.18;42.12;100186.97;12250084;19;19926;-89
2023/07/24 01:10:23;;;;;;;;;;;23.90;41.50;;;23.14;41.89;100184.84;12253500;19;19940;-89
2023/07/24 01:14:36;;;;;;;;;;;23.90;41.50;;;23.15;42.19;100174.00;12251210;19;19914;-89
2023/07/24 01:18:38;;;;;;;;;;;23.90;41.50;;;23.04;42.09;100152.31;12243423;19;19907;-88
2023/07/24 01:23:18;;;;;;;;;;;23.90;41.50;;;22.95;42.25;100140.84;12251774;19;19974;-88
2023/07/24 01:27:23;;;;;;;;;;;24.00;41.50;;;22.98;42.28;100143.22;12246593;19;19938;-88
2023/07/24 01:31:25;;;;;;;;;;;23.90;41.50;;;23.15;42.13;100170.53;12250397;19;19915;-89
2023/07/24 01:35:27;;;;;;;;;;;23.90;41.40;;;23.15;42.02;100163.38;12260364;19;19935;-88
2023/07/24 01:39:29;;;;;;;;;;;24.00;41.50;;;23.10;42.36;100162.25;12262231;19;19911;-89
2023/07/24 01:43:32;;;;;;;;;;;23.90;41.50;;;23.03;42.38;100151.47;12262463;19;19914;-89
2023/07/24 01:47:33;;;;;;;;;;;23.90;41.50;;;23.00;41.92;100141.19;12254962;19;19919;-89
2023/07/24 01:51:35;;;;;;;;;;;23.90;41.50;;;23.05;42.16;100153.97;12255655;19;19918;-89
2023/07/24 01:55:37;;;;;;;;;;;23.90;41.40;;;23.06;42.00;100161.78;12255653;19;20348;-89
2023/07/24 01:59:39;;;;;;;;;;;23.80;41.40;;;23.11;42.28;100164.72;12259369;19;19915;-89
2023/07/24 02:03:40;;;;;;;;;;;23.80;41.40;;;23.07;42.08;100157.28;12259759;19;19919;-89
2023/07/24 02:07:42;;;;;;;;;;;23.80;41.40;;;23.08;42.02;100162.41;12255324;19;19910;-89
2023/07/24 02:11:44;;;;;;;;;;;23.80;41.50;;;22.94;42.32;100145.34;12255397;19;19914;-89
2023/07/24 02:15:46;;;;;;;;;;;23.80;41.50;;;22.80;42.36;100126.69;12254863;19;20254;-89
2023/07/24 02:19:47;;;;;;;;;;;23.80;41.60;;;23.03;42.12;100154.13;12259213;19;19925;-89
2023/07/24 02:23:48;;;;;;;;;;;23.80;41.60;;;22.96;42.09;100130.06;12258408;19;20268;-89
2023/07/24 02:27:50;;;;;;;;;;;23.80;41.90;;;23.08;42.17;100148.28;12255834;19;20531;-89
2023/07/24 02:31:53;;;;;;;;;;;23.80;41.50;;;22.75;42.13;100090.78;12257501;19;19915;-89
2023/07/24 02:35:55;;;;;;;;;;;23.80;41.60;;;22.84;42.31;100106.69;12255562;19;20586;-89
2023/07/24 02:39:57;;;;;;;;;;;23.80;41.60;;;23.07;42.14;100146.63;12258419;19;19914;-89
2023/07/24 02:43:58;;;;;;;;;;;23.80;41.60;;;23.06;42.50;100139.63;12258131;19;19951;-89
2023/07/24 02:48:01;;;;;;;;;;;23.90;41.70;;;22.84;42.24;100112.00;12250493;19;20024;-89
2023/07/24 02:52:03;;;;;;;;;;;23.80;41.70;;;22.88;42.21;100123.97;12253884;19;19929;-89
2023/07/24 02:56:05;;;;;;;;;;;23.80;42.00;;;23.07;42.34;100170.59;12254926;19;19919;-89
2023/07/24 03:00:07;;;;;;;;;;;23.80;41.90;;;23.03;42.61;100158.63;12256270;19;20348;-89
2023/07/24 03:04:09;;;;;;;;;;;23.80;42.00;;;23.04;42.78;100162.97;12256304;19;19947;-89
2023/07/24 03:08:11;;;;;;;;;;;23.80;42.00;;;22.98;42.57;100159.19;12253351;19;19915;-89
2023/07/24 03:12:12;;;;;;;;;;;23.80;42.20;;;23.07;42.52;100179.41;12253974;19;19923;-89
2023/07/24 03:16:14;;;;;;;;;;;23.90;42.10;;;23.00;42.62;100167.81;12255343;19;19938;-89
2023/07/24 03:20:17;;;;;;;;;;;23.80;42.20;;;23.03;42.70;100172.78;12255819;19;19998;-89
2023/07/24 03:24:18;;;;;;;;;;;23.80;42.20;;;23.12;42.45;100189.53;12255907;19;20265;-89
2023/07/24 03:28:20;;;;;;;;;;;23.90;42.40;;;23.09;42.50;100177.41;12251946;19;19957;-89
2023/07/24 03:32:22;;;;;;;;;;;23.90;42.70;;;23.14;42.85;100174.19;12251858;19;19903;-89
2023/07/24 03:36:23;;;;;;;;;;;23.90;42.50;;;23.16;42.84;100178.31;12254615;19;19922;-89
2023/07/24 03:40:25;;;;;;;;;;;23.90;42.60;;;23.17;42.70;100179.19;12255014;19;19918;-89
2023/07/24 03:44:26;;;;;;;;;;;23.90;43.00;;;23.18;42.89;100191.47;12257363;19;20322;-89
2023/07/24 03:48:28;;;;;;;;;;;24.00;42.70;;;23.04;42.71;100157.66;12254392;19;19915;-89
2023/07/24 03:52:29;;;;;;;;;;;24.00;42.70;;;22.94;42.85;100136.56;12254193;19;20242;-89
2023/07/24 03:56:31;;;;;;;;;;;24.00;43.20;;;23.24;43.07;100196.06;12250272;19;20337;-89
2023/07/24 04:00:32;;;;;;;;;;;24.00;43.00;;;23.20;43.07;100178.81;12255755;19;19927;-88
2023/07/24 04:04:34;;;;;;;;;;;24.00;43.00;;;23.04;42.85;100142.50;12255255;19;19915;-89
2023/07/24 04:08:35;;;;;;;;;;;24.00;42.90;;;23.20;43.21;100168.16;12250803;19;19994;-89
2023/07/24 04:12:37;;;;;;;;;;;24.00;43.10;;;23.24;43.19;100174.75;12252809;19;20628;-89
2023/07/24 04:16:39;;;;;;;;;;;24.00;42.90;;;23.29;43.30;100177.72;12252677;19;19925;-89
2023/07/24 04:20:40;;;;;;;;;;;24.00;43.00;;;23.12;43.38;100145.09;12254887;19;19926;-89
2023/07/24 04:24:42;;;;;;;;;;;24.10;43.00;;;23.35;42.95;100176.16;12253148;19;20041;-89
2023/07/24 04:28:43;;;;;;;;;;;24.10;43.10;;;23.16;43.31;100137.53;12253435;19;19921;-90
2023/07/24 04:32:46;;;;;;;;;;;24.10;43.20;;;23.35;43.31;100170.84;12241392;19;19996;-89
2023/07/24 04:36:47;;;;;;;;;;;24.20;43.50;;;23.38;43.05;100157.97;12249028;19;19919;-89
2023/07/24 04:40:48;;;;;;;;;;;24.20;43.20;;;23.33;42.92;100151.53;12248735;19;19997;-89
2023/07/24 04:44:51;;;;;;;;;;;24.20;43.10;;;23.19;43.23;100123.84;12247825;19;19934;-89
2023/07/24 04:48:53;;;;;;;;;;;24.20;43.10;;;23.46;43.55;100159.72;12248274;19;20329;-89
2023/07/24 04:52:54;;;;;;;;;;;24.30;43.10;;;23.31;43.40;100135.75;12246025;19;19914;-89
2023/07/24 04:56:56;;;;;;;;;;;24.30;43.20;;;23.24;43.51;100113.50;12245904;19;19920;-89
2023/07/24 05:01:02;;;;;;;;;;;24.30;43.20;;;23.56;43.37;100156.81;12250923;19;20250;-89
2023/07/24 05:05:05;;;;;;;;;;;24.30;43.10;;;23.63;43.57;100160.41;12250437;19;19935;-87
2023/07/24 05:09:06;;;;;;;;;;;24.40;43.20;;;23.61;43.27;100159.75;12255337;19;19927;-89
2023/07/24 05:13:08;;;;;;;;;;;24.40;43.30;;;23.63;43.63;100152.41;12260948;19;19914;-89
2023/07/24 05:17:12;;;;;;;;;;;24.40;43.20;;;23.60;43.73;100129.59;12255683;19;20334;-89
2023/07/24 05:21:13;;;;;;;;;;;24.50;43.30;;;23.76;43.52;100141.94;12264333;19;19922;-87
2023/07/24 05:25:15;;;;;;;;;;;24.50;43.50;;;23.85;43.85;100146.16;12263314;19;20315;-89
2023/07/24 05:29:17;;;;;;;;;;;24.60;43.80;;;23.85;43.53;100130.16;12257055;19;19921;-89
2023/07/24 05:33:18;;;;;;;;;;;24.70;45.30;;;23.90;43.78;100129.59;12260710;19;19939;-88
2023/07/24 05:37:20;;;;;;;;;;;24.70;43.90;;;24.02;43.95;100137.94;12256260;19;19922;-89
2023/07/24 05:41:21;;;;;;;;;;;24.80;44.10;;;24.05;43.96;100140.25;12260311;19;19954;-88
2023/07/24 05:45:23;;;;;;;;;;;24.80;43.70;;;24.03;43.53;100135.09;12258459;19;19911;-89
2023/07/24 05:49:26;;;;;;;;;;;24.90;43.80;;;24.14;43.55;100117.78;12256900;19;19939;-88
2023/07/24 05:53:27;;;;;;;;;;;24.90;43.70;;;24.22;43.92;100131.00;12259523;19;19922;-88
2023/07/24 05:57:29;;;;;;;;;;;25.00;43.70;;;24.30;44.15;100111.38;12259949;19;20337;-85
2023/07/24 06:01:30;;;;;;;;;;;25.10;44.70;;;24.44;44.04;100107.06;12266017;19;19927;-84
2023/07/24 06:05:32;;;;;;;;;;;25.30;44.20;;;24.59;44.26;100098.97;12263802;19;20011;-83
2023/07/24 06:09:33;;;;;;;;;;;25.40;44.10;;;24.56;44.32;100067.31;12264628;19;19914;-84
2023/07/24 06:13:35;;;;;;;;;;;25.60;44.20;;;24.93;44.34;100103.56;12259493;19;20320;-84
2023/07/24 06:17:37;;;;;;;;;;;25.80;44.30;;;24.86;43.99;100049.25;12258588;19;19926;-85
2023/07/24 06:21:38;;;;;;;;;;;25.90;44.20;;;25.26;44.18;100103.00;12263992;19;19954;-84
2023/07/24 06:25:40;;;;;;;;;;;26.00;44.30;;;25.29;44.06;100089.25;12263702;19;19931;-85
2023/07/24 06:29:42;;;;;;;;;;;26.20;43.90;;;25.45;44.09;100094.28;12261043;19;19930;-84
2023/07/24 06:33:55;;;;;;;;;;;26.30;44.20;;;25.24;44.27;100027.53;12262574;19;20003;-85
2023/07/24 06:37:57;;;;;;;;;;;26.40;43.60;;;25.54;43.89;100060.97;12261402;19;19919;-85
2023/07/24 06:41:59;;;;;;;;;;;26.60;43.60;;;25.65;44.22;100069.47;12265076;19;19951;-85
2023/07/24 06:46:00;;;;;;;;;;;26.70;43.40;;;25.70;43.91;100053.66;12263042;19;19947;-84
2023/07/24 06:50:02;;;;;;;;;;;26.70;43.20;;;25.79;44.01;100068.53;12264968;19;19926;-85
2023/07/24 06:54:05;;;;;;;;;;;26.80;43.10;;;25.91;44.02;100066.09;12260772;19;20407;-85
2023/07/24 06:58:07;;;;;;;;;;;26.80;43.00;;;25.94;44.13;100058.50;12263337;19;19958;-86
2023/07/24 07:02:08;;;;;;;;;;;26.90;43.00;;;26.02;44.08;100070.88;12257854;19;19915;-86
2023/07/24 07:06:11;;;;;;;;;;;27.00;43.00;;;26.04;44.01;100064.28;12256830;19;20297;-85
2023/07/24 07:10:13;;;;;;;;;;;27.10;42.90;;;25.98;43.80;100035.69;12260489;19;19919;-85
2023/07/24 07:14:15;;;;;;;;;;;27.10;42.80;;;26.19;43.65;100052.56;12258692;19;19915;-85
2023/07/24 07:18:16;;;;;;;;;;;27.20;42.90;;;26.27;43.50;100049.72;12256291;19;19915;-85
2023/07/24 07:22:18;;;;;;;;;;;27.20;42.70;;;26.37;43.78;100044.78;12257196;19;20322;-85
2023/07/24 07:26:20;;;;;;;;;;;27.30;42.70;;;26.39;43.86;100015.97;12254993;19;20225;-86
2023/07/24 07:30:21;;;;;;;;;;;27.40;42.80;;;26.61;43.52;100042.56;12260566;19;20252;-85
2023/07/24 07:34:23;;;;;;;;;;;27.50;42.70;;;26.67;43.79;100039.06;12259694;19;19917;-85
2023/07/24 07:38:25;;;;;;;;;;;27.60;42.60;;;26.76;43.49;100040.50;12259730;19;19918;-86
2023/07/24 07:42:26;;;;;;;;;;;27.70;42.50;;;26.89;43.69;100034.28;12260058;19;20332;-85
2023/07/24 07:46:28;;;;;;;;;;;27.80;42.50;;;26.80;43.46;100027.50;12260467;19;19924;-85
2023/07/24 07:50:30;;;;;;;;;;;27.90;42.40;;;27.11;43.58;100065.19;12260622;19;19927;-85
2023/07/24 07:54:32;;;;;;;;;;;28.00;42.20;;;27.23;43.86;100068.06;12262233;19;20385;-85
2023/07/24 07:58:33;;;;;;;;;;;28.10;41.80;;;27.35;43.81;100055.69;12258291;19;19907;-87
2023/07/24 08:02:35;;;;;;;;;;;28.30;42.30;;;27.46;43.52;100046.13;12251212;19;19978;-87
2023/07/24 08:06:36;;;;;;;;;;;28.40;42.40;;;27.51;43.70;100043.63;12248768;19;19926;-87
2023/07/24 08:10:38;;;;;;;;;;;28.50;42.20;;;27.71;43.42;100058.84;12250540;19;20309;-87
2023/07/24 08:14:40;;;;;;;;;;;28.70;42.10;;;27.75;43.17;100055.50;12248159;19;20265;-88
2023/07/24 08:18:42;;;;;;;;;;;28.70;41.80;;;27.66;43.28;100013.03;12248412;19;19919;-88
2023/07/24 08:22:43;;;;;;;;;;;28.70;41.40;;;27.85;43.42;100035.47;12244723;19;19919;-89
2023/07/24 08:26:45;;;;;;;;;;;28.80;41.90;;;28.01;43.28;100027.72;12243459;19;19984;-86
2023/07/24 08:30:55;;;;;;;;;;;28.90;42.10;;;28.14;43.23;100029.50;12249632;19;19918;-87
2023/07/24 08:34:57;;;;;;;;;;;29.00;41.90;;;27.80;42.94;99948.38;12242830;19;19911;-87
2023/07/24 08:38:58;;;;;;;;;;;29.10;42.00;;;28.32;43.19;100009.13;12248820;19;19918;-87
2023/07/24 08:43:00;;;;;;;;;;;29.20;41.90;;;28.33;43.19;99995.50;12248525;19;19926;-87
2023/07/24 08:47:03;;;;;;;;;;;29.30;41.80;;;28.39;42.99;100005.34;12247078;19;19907;-87
2023/07/24 08:51:07;;;;;;;;;;;29.40;41.80;;;28.45;42.86;100009.06;12248207;19;19982;-87
2023/07/24 08:55:09;;;;;;;;;;;29.50;40.80;;;28.42;43.22;100004.09;12247430;19;20356;-87
2023/07/24 08:59:10;;;;;;;;;;;29.30;41.30;;;28.38;43.04;99990.28;12249463;19;19919;-87
2023/07/24 09:03:12;;;;;;;;;;;29.40;41.30;;;28.35;43.03;99995.25;12246992;19;20007;-87
2023/07/24 09:07:13;;;;;;;;;;;29.30;41.40;;;28.40;42.80;99992.75;12244172;19;19930;-87
2023/07/24 09:11:15;;;;;;;;;;;29.30;41.60;;;28.40;42.72;99982.00;12250884;19;19926;-87
2023/07/24 09:15:17;;;;;;;;;;;29.30;41.50;;;28.36;42.67;99949.41;12246669;19;19958;-86
2023/07/24 09:19:19;;;;;;;;;;;29.30;41.50;;;28.50;42.67;99968.94;12247019;19;19926;-88
2023/07/24 09:23:28;;;;;;;;;;;29.30;41.40;;;28.52;42.68;99960.66;12251325;19;19915;-87
2023/07/24 09:27:29;;;;;;;;;;;29.30;41.40;;;28.55;42.59;99949.47;12247996;19;19921;-88
2023/07/24 09:31:35;;;;;;;;;;;29.40;40.70;;;28.57;42.68;99958.94;12251758;19;19998;-87
2023/07/24 09:35:37;;;;;;;;;;;29.50;41.20;;;28.71;42.49;99969.56;12246651;19;19951;-88
2023/07/24 09:39:39;;;;;;;;;;;29.50;41.50;;;28.79;42.49;99966.59;12248657;19;19915;-88
2023/07/24 09:43:41;;;;;;;;;;;29.60;41.30;;;28.75;42.24;99957.31;12244939;19;19919;-85
2023/07/24 09:47:52;;;;;;;;;;;29.60;40.80;;;28.85;42.29;99957.63;12240893;19;19911;-86
2023/07/24 09:51:59;;;;;;;;;;;29.70;40.60;;;28.83;42.34;99951.63;12246100;19;19937;-86
2023/07/24 09:56:05;;;;;;;;;;;29.70;40.60;;;28.94;42.64;99968.91;12248227;19;20253;-85
2023/07/24 10:00:07;;;;;;;;;;;29.70;40.40;;;28.86;42.24;99935.88;12261324;19;20002;-85
2023/07/24 10:04:09;;;;;;;;;;;29.80;40.80;;;29.14;42.01;99950.72;12256273;19;19931;-84
2023/07/24 10:08:11;;;;;;;;;;;29.90;40.20;;;29.27;42.18;99947.00;12255360;19;19931;-86
2023/07/24 10:12:13;;;;;;;;;;;30.10;40.10;;;29.21;42.08;99913.78;12254375;19;19982;-85
2023/07/24 10:16:15;;;;;;;;;;;30.10;40.20;;;29.51;42.04;99942.56;12250821;19;19939;-85
2023/07/24 10:20:17;;;;;;;;;;;30.30;39.90;;;29.54;41.95;99916.03;12258001;19;19907;-85
2023/07/24 10:24:22;;;;;;;;;;;30.40;39.80;;;29.44;41.72;99891.53;12257443;19;19923;-86
2023/07/24 10:28:38;;;;;;;;;;;30.50;38.30;;;29.66;41.67;99902.63;12256943;19;19915;-86
2023/07/24 10:32:47;;;;;;;;;;;30.50;40.20;;;29.56;41.62;99884.31;12256796;19;19982;-85
2023/07/24 10:36:48;;;;;;;;;;;30.50;40.00;;;29.79;41.87;99890.84;12254902;19;20321;-86
2023/07/24 10:41:02;;;;;;;;;;;30.70;40.40;;;29.92;41.85;99879.00;12258776;19;19923;-84
2023/07/24 10:45:08;;;;;;;;;;;30.70;40.30;;;30.15;41.46;99892.50;12261226;19;19927;-85
2023/07/24 10:49:12;;;;;;;;;;;30.90;40.60;;;30.22;41.71;99870.84;12256939;19;19907;-86
2023/07/24 10:53:15;;;;;;;;;;;31.10;40.40;;;30.25;41.50;99838.09;12253659;19;19928;-86
2023/07/24 10:57:25;;;;;;;;;;;31.20;40.30;;;30.49;41.52;99851.50;12251661;19;20279;-85
2023/07/24 11:01:26;;;;;;;;;;;31.30;39.00;;;30.53;41.33;99839.19;12255184;19;20033;-85
2023/07/24 11:05:27;;;;;;;;;;;31.40;39.30;;;30.58;41.42;99823.16;12254286;19;19923;-86
2023/07/24 11:09:37;;;;;;;;;;;31.50;39.50;;;30.72;41.06;99829.88;12255470;19;20313;-85
2023/07/24 11:13:38;;;;;;;;;;;31.50;39.50;;;30.82;41.18;99827.44;12254365;19;19939;-85
2023/07/24 11:17:41;;;;;;;;;;;31.60;39.20;;;30.81;40.80;99796.16;12254442;19;19918;-85
2023/07/24 11:21:42;;;;;;;;;;;31.70;39.40;;;30.94;40.71;99788.81;12256232;19;19915;-85
2023/07/24 11:25:44;;;;;;;;;;;31.80;39.00;;;30.94;41.15;99789.63;12254906;19;20262;-85
2023/07/24 11:29:49;;;;;;;;;;;31.80;38.80;;;31.07;40.50;99780.41;12256961;19;20273;-85
2023/07/24 11:33:52;;;;;;;;;;;31.90;39.20;;;31.15;40.42;99780.03;12254906;19;19911;-85
2023/07/24 11:37:54;;;;;;;;;;;32.00;38.80;;;31.05;40.67;99759.06;12255688;19;19911;-85
2023/07/24 11:41:56;;;;;;;;;;;32.00;38.40;;;31.17;40.35;99771.69;12257459;19;19932;-85
2023/07/24 11:45:58;;;;;;;;;;;32.00;38.30;;;31.15;40.36;99771.13;12255939;19;19911;-85
2023/07/24 11:50:01;;;;;;;;;;;32.00;38.70;;;31.07;40.13;99764.25;12256813;19;19919;-85
2023/07/24 11:54:07;;;;;;;;;;;32.00;38.20;;;31.16;40.37;99757.38;12252762;19;19972;-85
2023/07/24 11:58:14;;;;;;;;;;;32.00;38.70;;;31.02;40.24;99732.59;12253038;19;20257;-85
2023/07/24 12:02:15;;;;;;;;;;;31.90;35.80;;;31.15;40.00;99742.25;12258035;19;19919;-85
2023/07/24 12:06:17;;;;;;;;;;;32.00;37.10;;;31.28;39.91;99747.34;12255924;19;19978;-86
2023/07/24 12:10:27;;;;;;;;;;;32.00;37.30;;;31.46;39.47;99751.72;12256261;19;19936;-85
2023/07/24 12:14:28;;;;;;;;;;;32.10;35.50;;;31.62;39.30;99758.16;12259495;19;19955;-86
2023/07/24 12:18:30;;;;;;;;;;;32.20;37.10;;;31.68;39.35;99749.06;12257971;19;19918;-86
2023/07/24 12:22:32;;;;;;;;;;;32.40;37.80;;;31.77;39.58;99737.84;12262489;19;19919;-85
2023/07/24 12:26:34;;;;;;;;;;;32.50;36.90;;;31.80;39.13;99746.25;12261352;19;20296;-85
2023/07/24 12:30:35;;;;;;;;;;;32.50;36.50;;;31.72;39.26;99746.69;12258890;19;19915;-86
2023/07/24 12:34:36;;;;;;;;;;;32.50;36.10;;;31.69;39.04;99760.69;12262199;19;19924;-85
2023/07/24 12:38:38;;;;;;;;;;;32.50;37.40;;;31.41;39.01;99732.72;12250168;19;19927;-85
2023/07/24 12:42:39;;;;;;;;;;;32.40;36.50;;;31.46;38.71;99764.34;12251520;19;19936;-85
2023/07/24 12:46:41;;;;;;;;;;;32.30;37.00;;;31.40;39.05;99765.34;12251369;19;20202;-86
2023/07/24 12:50:42;;;;;;;;;;;32.20;37.50;;;31.26;39.00;99764.81;12254284;19;19923;-85
2023/07/24 12:54:44;;;;;;;;;;;32.10;37.50;;;31.20;38.84;99766.63;12250905;19;19989;-85
2023/07/24 12:58:46;;;;;;;;;;;31.90;37.70;;;31.02;38.55;99748.78;12251272;19;19919;-85
2023/07/24 13:02:48;;;;;;;;;;;31.80;38.00;;;30.92;38.60;99720.81;12250957;19;19943;-84
2023/07/24 13:06:49;;;;;;;;;;;31.80;37.90;;;31.03;38.99;99726.16;12246681;19;20252;-86
2023/07/24 13:10:51;;;;;;;;;;;31.70;37.90;;;31.00;38.60;99712.31;12250549;19;19939;-86
2023/07/24 13:14:53;;;;;;;;;;;31.80;37.70;;;31.18;38.68;99714.78;12250995;19;19935;-85
2023/07/24 13:18:54;;;;;;;;;;;31.80;36.80;;;31.26;38.69;99725.16;12250702;19;19923;-84
2023/07/24 13:22:56;;;;;;;;;;;31.80;37.60;;;31.27;38.71;99729.53;12247206;19;19942;-85
2023/07/24 13:26:57;;;;;;;;;;;31.90;38.20;;;31.25;38.76;99736.22;12244604;19;19922;-86
2023/07/24 13:30:59;;;;;;;;;;;31.90;38.10;;;31.08;38.55;99725.41;12250289;19;19918;-84
2023/07/24 13:35:01;;;;;;;;;;;31.80;38.10;;;31.00;38.81;99709.63;12250396;19;20246;-86
2023/07/24 13:39:03;;;;;;;;;;;31.80;38.50;;;31.02;38.86;99721.81;12251092;19;19915;-85
2023/07/24 13:43:05;;;;;;;;;;;31.70;38.50;;;30.98;38.45;99703.69;12249765;19;19957;-85
2023/07/24 13:47:06;;;;;;;;;;;31.60;38.60;;;30.99;38.67;99706.13;12248150;19;19919;-84
2023/07/24 13:51:08;;;;;;;;;;;31.60;38.60;;;30.93;38.51;99701.72;12239518;19;19954;-85
2023/07/24 13:55:14;;;;;;;;;;;31.50;38.70;;;30.81;38.49;99709.88;12250891;19;20245;-83
2023/07/24 13:59:15;;;;;;;;;;;31.40;38.80;;;30.70;38.78;99691.00;12257120;19;20356;-83
2023/07/24 14:03:17;;;;;;;;;;;31.30;38.80;;;30.62;38.42;99693.06;12256627;19;19919;-82
2023/07/24 14:07:19;;;;;;;;;;;31.20;38.80;;;30.42;38.45;99679.19;12250340;19;19936;-84
2023/07/24 14:11:21;;;;;;;;;;;31.10;38.90;;;30.38;38.71;99686.97;12254947;19;19940;-85
2023/07/24 14:15:23;;;;;;;;;;;31.00;39.00;;;30.19;38.61;99655.81;12252754;19;19927;-86
2023/07/24 14:19:26;;;;;;;;;;;30.90;39.00;;;30.24;38.51;99668.59;12257141;19;19968;-84
2023/07/24 14:23:27;;;;;;;;;;;30.90;39.20;;;30.10;38.64;99644.63;12256779;19;20018;-84
2023/07/24 14:27:29;;;;;;;;;;;30.80;39.10;;;30.27;38.39;99677.03;12255702;19;19937;-84
2023/07/24 14:31:31;;;;;;;;;;;30.80;39.20;;;30.17;38.51;99677.63;12255420;19;19919;-83
2023/07/24 14:35:32;;;;;;;;;;;30.70;39.30;;;30.14;38.85;99688.06;12251623;19;19919;-84
2023/07/24 14:39:34;;;;;;;;;;;30.60;39.40;;;30.16;38.88;99686.78;12254560;19;19927;-84
2023/07/24 14:43:36;;;;;;;;;;;30.60;39.40;;;30.10;38.57;99655.38;12255381;19;20341;-84
2023/07/24 14:47:37;;;;;;;;;;;30.60;39.40;;;30.07;38.80;99665.84;12250374;19;19919;-84
2023/07/24 14:51:38;;;;;;;;;;;30.50;39.40;;;30.06;38.64;99656.13;12251702;19;19923;-84
2023/07/24 14:55:40;;;;;;;;;;;30.50;39.40;;;30.04;38.69;99661.75;12251257;19;19926;-84
2023/07/24 14:59:41;;;;;;;;;;;30.40;39.10;;;29.90;38.77;99642.34;12250606;19;19926;-87
2023/07/24 15:03:43;;;;;;;;;;;30.40;39.20;;;29.96;38.83;99644.09;12242706;19;19930;-87
2023/07/24 15:07:44;;;;;;;;;;;30.40;39.30;;;29.71;38.85;99579.78;12239166;19;19918;-87
2023/07/24 15:11:46;;;;;;;;;;;30.40;39.30;;;29.94;38.93;99610.38;12247358;19;19939;-87
2023/07/24 15:15:48;;;;;;;;;;;30.40;39.20;;;29.73;38.90;99576.84;12245710;19;19934;-87
2023/07/24 15:19:49;;;;;;;;;;;30.40;39.30;;;29.99;38.79;99597.81;12246094;19;19918;-87
2023/07/24 15:23:52;;;;;;;;;;;30.50;39.40;;;29.95;38.88;99588.59;12245319;19;19927;-87
2023/07/24 15:27:53;;;;;;;;;;;30.50;39.40;;;29.86;38.92;99568.50;12248083;19;19922;-87
2023/07/24 15:31:54;;;;;;;;;;;30.50;39.40;;;29.94;39.03;99581.56;12246905;19;19935;-87
2023/07/24 15:35:56;;;;;;;;;;;30.50;39.50;;;29.96;38.78;99575.97;12249308;19;20326;-87
2023/07/24 15:39:58;;;;;;;;;;;30.50;39.50;;;29.97;38.79;99582.97;12248438;19;19919;-87
2023/07/24 15:44:00;;;;;;;;;;;30.50;39.50;;;29.95;38.49;99577.84;12251500;19;19915;-87
2023/07/24 15:48:01;;;;;;;;;;;30.50;39.60;;;29.91;39.03;99560.53;12246226;19;19924;-87
2023/07/24 15:52:03;;;;;;;;;;;30.40;39.50;;;29.89;38.90;99545.66;12249841;19;19929;-87
2023/07/24 15:56:06;;;;;;;;;;;30.40;39.60;;;29.87;39.09;99553.19;12245602;19;20588;-87
2023/07/24 16:00:08;;;;;;;;;;;30.50;39.70;;;29.86;38.90;99552.34;12249437;19;20262;-87
2023/07/24 16:04:13;;;;;;;;;;;30.50;39.80;;;29.98;38.99;99574.66;12248998;19;20420;-87
2023/07/24 16:08:15;;;;;;;;;;;30.50;39.80;;;29.99;38.77;99570.91;12244499;19;19911;-87
2023/07/24 16:12:16;;;;;;;;;;;30.50;39.90;;;29.97;39.22;99548.81;12245561;19;19974;-87
2023/07/24 16:16:18;;;;;;;;;;;30.50;39.80;;;29.78;38.87;99523.13;12243125;19;19923;-86
2023/07/24 16:20:21;;;;;;;;;;;30.50;39.70;;;29.80;38.94;99530.97;12250090;19;19915;-87
2023/07/24 16:24:22;;;;;;;;;;;30.50;39.80;;;29.94;39.26;99548.44;12247417;19;19923;-87
2023/07/24 16:28:24;;;;;;;;;;;30.40;39.70;;;29.90;39.26;99540.06;12250958;19;19935;-87
2023/07/24 16:32:25;;;;;;;;;;;30.40;39.70;;;29.87;39.27;99524.38;12239579;19;19911;-87
2023/07/24 16:36:27;;;;;;;;;;;30.40;39.70;;;29.76;39.06;99498.34;12243943;19;19918;-87
2023/07/24 16:40:29;;;;;;;;;;;30.40;39.70;;;29.81;39.04;99508.38;12248331;19;20346;-87
2023/07/24 16:44:30;;;;;;;;;;;30.40;39.70;;;29.85;39.04;99509.53;12246448;19;19941;-86
2023/07/24 16:48:32;;;;;;;;;;;30.40;39.80;;;29.89;38.96;99503.41;12246892;19;19910;-89
2023/07/24 16:52:35;;;;;;;;;;;30.40;39.80;;;29.90;39.42;99499.66;12246809;19;19918;-87
2023/07/24 16:56:36;;;;;;;;;;;30.40;39.90;;;29.85;39.37;99486.13;12244492;19;19952;-87
2023/07/24 17:00:38;;;;;;;;;;;30.40;39.90;;;29.76;39.10;99457.97;12247051;19;19911;-87
2023/07/24 17:04:39;;;;;;;;;;;30.40;39.80;;;29.79;38.87;99470.94;12252210;19;19927;-87
2023/07/24 17:08:41;;;;;;;;;;;30.40;39.80;;;29.77;39.39;99473.84;12257977;19;20265;-88
2023/07/24 17:12:43;;;;;;;;;;;30.30;39.80;;;29.73;39.10;99466.50;12256999;19;19936;-87
2023/07/24 17:16:44;;;;;;;;;;;30.30;39.90;;;29.71;39.45;99460.56;12255671;19;19930;-87
2023/07/24 17:20:48;;;;;;;;;;;30.30;40.00;;;29.65;39.06;99437.28;12259235;19;19929;-86
2023/07/24 17:24:50;;;;;;;;;;;30.20;40.00;;;29.50;38.98;99382.13;12258956;19;19943;-88
2023/07/24 17:28:51;;;;;;;;;;;30.10;40.20;;;29.30;39.28;99360.22;12256293;19;19919;-88
2023/07/24 17:32:53;;;;;;;;;;;29.90;40.10;;;29.23;39.58;99363.06;12253635;19;19911;-88
2023/07/24 17:36:55;;;;;;;;;;;29.80;40.10;;;28.97;39.27;99317.91;12248386;19;20400;-87
2023/07/24 17:41:00;;;;;;;;;;;29.70;40.10;;;28.96;39.50;99338.59;12256058;19;19927;-88
2023/07/24 17:45:03;;;;;;;;;;;29.60;40.10;;;28.96;39.36;99469.50;12251876;19;20421;-88
2023/07/24 17:49:04;;;;;;;;;;;29.50;40.20;;;28.64;39.43;99657.94;12258785;19;19919;-87
2023/07/24 17:53:06;;;;;;;;;;;29.40;39.70;;;27.95;39.70;99654.69;12252614;19;19914;-87
2023/07/24 17:57:08;;;;;;;;;;;29.10;39.70;;;27.05;39.92;99626.47;12250459;19;19919;-89
2023/07/24 18:01:10;;;;;;;;;;;28.40;39.50;;;26.38;40.34;99612.72;12255066;19;19910;-86
2023/07/24 18:05:11;;;;;;;;;;;27.70;39.30;;;25.88;40.18;99625.09;12250487;19;19915;-87
2023/07/24 18:09:13;;;;;;;;;;;27.00;39.40;;;25.53;40.20;99620.84;12253581;19;20241;-87
2023/07/24 18:13:15;;;;;;;;;;;26.40;39.80;;;25.31;40.09;99600.75;12248630;19;19911;-88